sensor_id;sensor_type;location;lat;lon;timestamp;temperature;humidity
19090;DHT22;9677;50.656;13.064;2023-09-30T00:01:32;22.60;50.20
19090;DHT22;9677;50.656;13.064;2023-09-30T00:04:01;22.50;50.60
19090;DHT22;9677;50.656;13.064;2023-09-30T00:06:31;22.60;51.00
19090;DHT22;9677;50.656;13.064;2023-09-30T00:08:59;22.20;50.10
19090;DHT22;9677;50.656;13.064;2023-09-30T00:11:32;22.70;50.20
19090;DHT22;9677;50.656;13.064;2023-09-30T00:14:03;23.70;50.70
19090;DHT22;9677;50.656;13.064;2023-09-30T00:16:33;22.50;50.60
19090;DHT22;9677;50.656;13.064;2023-09-30T00:19:02;23.40;50.70
19090;DHT22;9677;50.656;13.064;2023-09-30T00:21:31;22.70;50.60
19090;DHT22;9677;50.656;13.064;2023-09-30T00:23:59;22.50;50.60
19090;DHT22;9677;50.656;13.064;2023-09-30T00:26:28;22.40;50.30
19090;DHT22;9677;50.656;13.064;2023-09-30T00:28:58;22.40;50.30
19090;DHT22;9677;50.656;13.064;2023-09-30T00:31:28;22.50;50.50
19090;DHT22;9677;50.656;13.064;2023-09-30T00:33:57;22.50;50.50
19090;DHT22;9677;50.656;13.064;2023-09-30T00:36:26;22.40;50.40
19090;DHT22;9677;50.656;13.064;2023-09-30T00:38:55;22.40;50.60
19090;DHT22;9677;50.656;13.064;2023-09-30T00:41:25;23.50;51.30
19090;DHT22;9677;50.656;13.064;2023-09-30T00:43:54;23.60;51.30
19090;DHT22;9677;50.656;13.064;2023-09-30T00:46:28;23.00;50.90
19090;DHT22;9677;50.656;13.064;2023-09-30T00:48:59;22.70;51.00
19090;DHT22;9677;50.656;13.064;2023-09-30T00:51:29;23.70;51.80
19090;DHT22;9677;50.656;13.064;2023-09-30T00:53:59;23.50;51.50
19090;DHT22;9677;50.656;13.064;2023-09-30T00:56:29;23.90;51.90
19090;DHT22;9677;50.656;13.064;2023-09-30T00:58:59;22.40;51.80
19090;DHT22;9677;50.656;13.064;2023-09-30T01:01:29;22.30;52.30
19090;DHT22;9677;50.656;13.064;2023-09-30T01:03:57;22.20;52.20
19090;DHT22;9677;50.656;13.064;2023-09-30T01:06:27;22.20;52.10
19090;DHT22;9677;50.656;13.064;2023-09-30T01:08:55;22.10;52.20
19090;DHT22;9677;50.656;13.064;2023-09-30T01:11:24;22.10;52.20
19090;DHT22;9677;50.656;13.064;2023-09-30T01:13:53;21.90;52.30
19090;DHT22;9677;50.656;13.064;2023-09-30T01:16:23;21.90;52.40
19090;DHT22;9677;50.656;13.064;2023-09-30T01:18:52;21.80;52.50
19090;DHT22;9677;50.656;13.064;2023-09-30T01:21:21;21.90;53.00
19090;DHT22;9677;50.656;13.064;2023-09-30T01:23:52;21.70;52.80
19090;DHT22;9677;50.656;13.064;2023-09-30T01:26:20;21.60;52.80
19090;DHT22;9677;50.656;13.064;2023-09-30T01:28:49;21.60;53.00
19090;DHT22;9677;50.656;13.064;2023-09-30T01:31:17;21.40;53.00
19090;DHT22;9677;50.656;13.064;2023-09-30T01:33:46;21.40;53.00
19090;DHT22;9677;50.656;13.064;2023-09-30T01:36:15;21.30;53.10
19090;DHT22;9677;50.656;13.064;2023-09-30T01:38:44;21.20;53.10
19090;DHT22;9677;50.656;13.064;2023-09-30T01:41:14;21.10;53.10
19090;DHT22;9677;50.656;13.064;2023-09-30T01:43:43;21.00;53.30
19090;DHT22;9677;50.656;13.064;2023-09-30T01:46:11;20.90;53.20
19090;DHT22;9677;50.656;13.064;2023-09-30T01:48:40;20.90;53.30
19090;DHT22;9677;50.656;13.064;2023-09-30T01:51:08;20.90;53.30
19090;DHT22;9677;50.656;13.064;2023-09-30T01:53:36;20.70;53.30
19090;DHT22;9677;50.656;13.064;2023-09-30T01:56:05;20.70;53.30
19090;DHT22;9677;50.656;13.064;2023-09-30T01:58:34;20.60;53.30
19090;DHT22;9677;50.656;13.064;2023-09-30T02:01:03;20.50;53.30
19090;DHT22;9677;50.656;13.064;2023-09-30T02:03:32;20.40;53.20
19090;DHT22;9677;50.656;13.064;2023-09-30T02:06:00;20.70;53.50
19090;DHT22;9677;50.656;13.064;2023-09-30T02:08:28;20.30;53.60
19090;DHT22;9677;50.656;13.064;2023-09-30T02:10:57;20.20;53.40
19090;DHT22;9677;50.656;13.064;2023-09-30T02:13:25;20.10;53.40
19090;DHT22;9677;50.656;13.064;2023-09-30T02:15:55;20.00;53.50
19090;DHT22;9677;50.656;13.064;2023-09-30T02:18:24;19.90;53.70
19090;DHT22;9677;50.656;13.064;2023-09-30T02:20:52;19.90;53.70
19090;DHT22;9677;50.656;13.064;2023-09-30T02:23:20;19.80;53.80
19090;DHT22;9677;50.656;13.064;2023-09-30T02:25:49;19.80;54.00
19090;DHT22;9677;50.656;13.064;2023-09-30T02:28:17;19.70;54.00
19090;DHT22;9677;50.656;13.064;2023-09-30T02:30:46;19.80;54.10
19090;DHT22;9677;50.656;13.064;2023-09-30T02:33:16;19.70;54.20
19090;DHT22;9677;50.656;13.064;2023-09-30T02:35:45;19.70;54.30
19090;DHT22;9677;50.656;13.064;2023-09-30T02:38:13;19.60;54.30
19090;DHT22;9677;50.656;13.064;2023-09-30T02:40:44;19.70;54.50
19090;DHT22;9677;50.656;13.064;2023-09-30T02:43:13;19.60;54.40
19090;DHT22;9677;50.656;13.064;2023-09-30T02:45:41;19.60;54.50
19090;DHT22;9677;50.656;13.064;2023-09-30T02:48:10;19.50;54.40
19090;DHT22;9677;50.656;13.064;2023-09-30T02:50:42;19.50;54.40
19090;DHT22;9677;50.656;13.064;2023-09-30T02:53:12;19.50;54.60
19090;DHT22;9677;50.656;13.064;2023-09-30T02:55:41;19.50;54.50
19090;DHT22;9677;50.656;13.064;2023-09-30T02:58:10;19.50;54.60
19090;DHT22;9677;50.656;13.064;2023-09-30T03:00:39;19.40;54.60
19090;DHT22;9677;50.656;13.064;2023-09-30T03:03:07;19.70;54.70
19090;DHT22;9677;50.656;13.064;2023-09-30T03:05:36;19.40;54.60
19090;DHT22;9677;50.656;13.064;2023-09-30T03:08:06;19.40;54.70
19090;DHT22;9677;50.656;13.064;2023-09-30T03:10:34;19.40;54.80
19090;DHT22;9677;50.656;13.064;2023-09-30T03:13:07;19.30;54.80
19090;DHT22;9677;50.656;13.064;2023-09-30T03:15:36;19.30;54.80
19090;DHT22;9677;50.656;13.064;2023-09-30T03:18:06;19.30;54.90
19090;DHT22;9677;50.656;13.064;2023-09-30T03:20:34;19.30;54.90
19090;DHT22;9677;50.656;13.064;2023-09-30T03:23:06;19.30;54.90
19090;DHT22;9677;50.656;13.064;2023-09-30T03:25:35;19.30;54.80
19090;DHT22;9677;50.656;13.064;2023-09-30T03:28:04;19.30;54.70
19090;DHT22;9677;50.656;13.064;2023-09-30T03:30:33;19.40;54.70
19090;DHT22;9677;50.656;13.064;2023-09-30T03:33:02;19.20;54.60
19090;DHT22;9677;50.656;13.064;2023-09-30T03:35:31;19.10;54.60
19090;DHT22;9677;50.656;13.064;2023-09-30T03:38:00;19.30;54.80
19090;DHT22;9677;50.656;13.064;2023-09-30T03:40:30;18.90;54.60
19090;DHT22;9677;50.656;13.064;2023-09-30T03:43:01;18.90;54.70
19090;DHT22;9677;50.656;13.064;2023-09-30T03:45:30;18.80;54.70
19090;DHT22;9677;50.656;13.064;2023-09-30T03:47:59;18.80;54.80
19090;DHT22;9677;50.656;13.064;2023-09-30T03:50:29;18.70;54.80
19090;DHT22;9677;50.656;13.064;2023-09-30T03:53:01;19.00;55.00
19090;DHT22;9677;50.656;13.064;2023-09-30T03:55:33;18.60;55.00
19090;DHT22;9677;50.656;13.064;2023-09-30T03:58:01;18.60;55.00
19090;DHT22;9677;50.656;13.064;2023-09-30T04:00:30;18.60;55.00
19090;DHT22;9677;50.656;13.064;2023-09-30T04:02:59;18.60;55.00
19090;DHT22;9677;50.656;13.064;2023-09-30T04:05:27;18.50;55.00
19090;DHT22;9677;50.656;13.064;2023-09-30T04:07:58;18.50;55.10
19090;DHT22;9677;50.656;13.064;2023-09-30T04:10:27;18.50;55.10
19090;DHT22;9677;50.656;13.064;2023-09-30T04:12:58;18.50;55.20
19090;DHT22;9677;50.656;13.064;2023-09-30T04:15:26;18.40;55.20
19090;DHT22;9677;50.656;13.064;2023-09-30T04:17:54;18.40;55.20
19090;DHT22;9677;50.656;13.064;2023-09-30T04:20:22;18.40;55.20
19090;DHT22;9677;50.656;13.064;2023-09-30T04:22:53;18.40;55.30
19090;DHT22;9677;50.656;13.064;2023-09-30T04:25:24;18.40;55.30
19090;DHT22;9677;50.656;13.064;2023-09-30T04:27:53;18.40;55.30
19090;DHT22;9677;50.656;13.064;2023-09-30T04:30:23;18.30;55.30
19090;DHT22;9677;50.656;13.064;2023-09-30T04:32:51;18.30;55.30
19090;DHT22;9677;50.656;13.064;2023-09-30T04:35:20;18.20;55.30
19090;DHT22;9677;50.656;13.064;2023-09-30T04:37:48;18.30;55.40
19090;DHT22;9677;50.656;13.064;2023-09-30T04:40:18;18.30;55.40
19090;DHT22;9677;50.656;13.064;2023-09-30T04:42:48;18.20;55.40
19090;DHT22;9677;50.656;13.064;2023-09-30T04:45:17;18.20;55.50
19090;DHT22;9677;50.656;13.064;2023-09-30T04:47:49;18.20;55.50
19090;DHT22;9677;50.656;13.064;2023-09-30T04:50:17;18.10;55.50
19090;DHT22;9677;50.656;13.064;2023-09-30T04:52:49;18.10;55.60
19090;DHT22;9677;50.656;13.064;2023-09-30T04:55:18;18.10;55.60
19090;DHT22;9677;50.656;13.064;2023-09-30T04:57:47;18.10;55.70
19090;DHT22;9677;50.656;13.064;2023-09-30T05:00:17;18.10;55.70
19090;DHT22;9677;50.656;13.064;2023-09-30T05:02:50;18.10;55.70
19090;DHT22;9677;50.656;13.064;2023-09-30T05:05:19;18.00;55.70
19090;DHT22;9677;50.656;13.064;2023-09-30T05:07:47;18.00;55.70
19090;DHT22;9677;50.656;13.064;2023-09-30T05:10:15;18.00;55.70
19090;DHT22;9677;50.656;13.064;2023-09-30T05:12:44;18.00;55.70
19090;DHT22;9677;50.656;13.064;2023-09-30T05:15:15;18.00;55.80
19090;DHT22;9677;50.656;13.064;2023-09-30T05:17:44;18.00;55.90
19090;DHT22;9677;50.656;13.064;2023-09-30T05:20:15;18.00;55.90
19090;DHT22;9677;50.656;13.064;2023-09-30T05:22:45;18.00;55.90
19090;DHT22;9677;50.656;13.064;2023-09-30T05:25:16;18.00;55.80
19090;DHT22;9677;50.656;13.064;2023-09-30T05:27:46;18.00;55.80
19090;DHT22;9677;50.656;13.064;2023-09-30T05:30:16;18.00;55.80
19090;DHT22;9677;50.656;13.064;2023-09-30T05:32:46;17.90;55.80
19090;DHT22;9677;50.656;13.064;2023-09-30T05:35:16;17.90;55.70
19090;DHT22;9677;50.656;13.064;2023-09-30T05:37:45;18.30;55.90
19090;DHT22;9677;50.656;13.064;2023-09-30T05:40:13;17.90;55.80
19090;DHT22;9677;50.656;13.064;2023-09-30T05:42:50;17.90;56.40
19090;DHT22;9677;50.656;13.064;2023-09-30T05:45:19;17.90;55.80
19090;DHT22;9677;50.656;13.064;2023-09-30T05:47:50;17.80;55.80
19090;DHT22;9677;50.656;13.064;2023-09-30T05:50:22;17.90;55.90
19090;DHT22;9677;50.656;13.064;2023-09-30T05:52:54;17.80;55.90
19090;DHT22;9677;50.656;13.064;2023-09-30T05:55:23;17.80;55.90
19090;DHT22;9677;50.656;13.064;2023-09-30T05:57:54;17.80;55.90
19090;DHT22;9677;50.656;13.064;2023-09-30T06:00:22;17.80;56.00
19090;DHT22;9677;50.656;13.064;2023-09-30T06:02:56;17.80;56.10
19090;DHT22;9677;50.656;13.064;2023-09-30T06:05:26;17.80;56.10
19090;DHT22;9677;50.656;13.064;2023-09-30T06:07:58;17.80;56.20
19090;DHT22;9677;50.656;13.064;2023-09-30T06:10:29;17.80;56.10
19090;DHT22;9677;50.656;13.064;2023-09-30T06:12:58;17.80;56.10
19090;DHT22;9677;50.656;13.064;2023-09-30T06:15:27;17.80;56.10
19090;DHT22;9677;50.656;13.064;2023-09-30T06:17:56;17.80;56.10
19090;DHT22;9677;50.656;13.064;2023-09-30T06:20:28;17.80;56.10
19090;DHT22;9677;50.656;13.064;2023-09-30T06:22:58;18.40;56.30
19090;DHT22;9677;50.656;13.064;2023-09-30T06:25:27;17.80;56.10
19090;DHT22;9677;50.656;13.064;2023-09-30T06:27:57;17.80;56.10
19090;DHT22;9677;50.656;13.064;2023-09-30T06:30:25;17.90;56.20
19090;DHT22;9677;50.656;13.064;2023-09-30T06:32:57;17.70;56.20
19090;DHT22;9677;50.656;13.064;2023-09-30T06:35:29;17.70;56.20
19090;DHT22;9677;50.656;13.064;2023-09-30T06:38:01;17.70;56.30
19090;DHT22;9677;50.656;13.064;2023-09-30T06:40:30;17.70;56.30
19090;DHT22;9677;50.656;13.064;2023-09-30T06:42:58;17.70;56.40
19090;DHT22;9677;50.656;13.064;2023-09-30T06:45:28;17.70;56.40
19090;DHT22;9677;50.656;13.064;2023-09-30T06:47:56;17.70;56.40
19090;DHT22;9677;50.656;13.064;2023-09-30T06:50:25;17.70;56.50
19090;DHT22;9677;50.656;13.064;2023-09-30T06:52:55;17.70;56.50
19090;DHT22;9677;50.656;13.064;2023-09-30T06:55:23;18.00;56.80
19090;DHT22;9677;50.656;13.064;2023-09-30T06:57:53;17.70;56.80
19090;DHT22;9677;50.656;13.064;2023-09-30T07:00:22;17.80;56.90
19090;DHT22;9677;50.656;13.064;2023-09-30T07:02:50;17.80;56.90
19090;DHT22;9677;50.656;13.064;2023-09-30T07:05:19;17.90;56.90
19090;DHT22;9677;50.656;13.064;2023-09-30T07:07:47;17.90;56.90
19090;DHT22;9677;50.656;13.064;2023-09-30T07:10:17;17.90;56.80
19090;DHT22;9677;50.656;13.064;2023-09-30T07:12:45;18.00;56.80
19090;DHT22;9677;50.656;13.064;2023-09-30T07:15:13;18.00;56.70
19090;DHT22;9677;50.656;13.064;2023-09-30T07:17:42;18.00;56.60
19090;DHT22;9677;50.656;13.064;2023-09-30T07:20:11;18.10;56.60
19090;DHT22;9677;50.656;13.064;2023-09-30T07:22:40;18.10;56.50
19090;DHT22;9677;50.656;13.064;2023-09-30T07:25:26;18.20;56.50
19090;DHT22;9677;50.656;13.064;2023-09-30T07:27:55;18.20;56.40
19090;DHT22;9677;50.656;13.064;2023-09-30T07:30:23;18.80;56.50
19090;DHT22;9677;50.656;13.064;2023-09-30T07:32:52;18.20;56.20
19090;DHT22;9677;50.656;13.064;2023-09-30T07:35:21;18.20;56.20
19090;DHT22;9677;50.656;13.064;2023-09-30T07:37:49;18.20;56.20
19090;DHT22;9677;50.656;13.064;2023-09-30T07:40:20;18.20;56.30
19090;DHT22;9677;50.656;13.064;2023-09-30T07:42:50;18.30;56.40
19090;DHT22;9677;50.656;13.064;2023-09-30T07:45:18;18.30;56.30
19090;DHT22;9677;50.656;13.064;2023-09-30T07:47:48;18.30;56.30
19090;DHT22;9677;50.656;13.064;2023-09-30T07:50:18;18.40;56.30
19090;DHT22;9677;50.656;13.064;2023-09-30T07:52:46;18.40;56.30
19090;DHT22;9677;50.656;13.064;2023-09-30T07:55:14;18.40;56.20
19090;DHT22;9677;50.656;13.064;2023-09-30T07:57:43;18.40;56.20
19090;DHT22;9677;50.656;13.064;2023-09-30T08:00:16;18.50;56.20
19090;DHT22;9677;50.656;13.064;2023-09-30T08:02:44;18.50;56.30
19090;DHT22;9677;50.656;13.064;2023-09-30T08:05:13;18.60;56.30
19090;DHT22;9677;50.656;13.064;2023-09-30T08:07:41;18.70;56.30
19090;DHT22;9677;50.656;13.064;2023-09-30T08:10:10;18.60;56.20
19090;DHT22;9677;50.656;13.064;2023-09-30T08:12:41;18.70;56.20
19090;DHT22;9677;50.656;13.064;2023-09-30T08:15:09;18.70;56.20
19090;DHT22;9677;50.656;13.064;2023-09-30T08:17:41;18.80;56.30
19090;DHT22;9677;50.656;13.064;2023-09-30T08:20:09;18.80;56.20
19090;DHT22;9677;50.656;13.064;2023-09-30T08:22:39;18.90;56.20
19090;DHT22;9677;50.656;13.064;2023-09-30T08:25:08;18.90;56.10
19090;DHT22;9677;50.656;13.064;2023-09-30T08:27:37;19.00;56.00
19090;DHT22;9677;50.656;13.064;2023-09-30T08:30:08;19.00;55.80
19090;DHT22;9677;50.656;13.064;2023-09-30T08:32:37;19.10;55.80
19090;DHT22;9677;50.656;13.064;2023-09-30T08:35:09;19.40;55.80
19090;DHT22;9677;50.656;13.064;2023-09-30T08:37:38;19.10;55.70
19090;DHT22;9677;50.656;13.064;2023-09-30T08:40:07;19.40;55.50
19090;DHT22;9677;50.656;13.064;2023-09-30T08:42:38;19.20;55.50
19090;DHT22;9677;50.656;13.064;2023-09-30T08:45:10;19.30;55.50
19090;DHT22;9677;50.656;13.064;2023-09-30T08:47:41;19.30;55.60
19090;DHT22;9677;50.656;13.064;2023-09-30T08:50:12;19.40;55.60
19090;DHT22;9677;50.656;13.064;2023-09-30T08:52:41;19.40;55.50
19090;DHT22;9677;50.656;13.064;2023-09-30T08:55:12;19.40;55.30
19090;DHT22;9677;50.656;13.064;2023-09-30T08:57:41;19.40;55.20
19090;DHT22;9677;50.656;13.064;2023-09-30T09:00:11;19.50;55.10
19090;DHT22;9677;50.656;13.064;2023-09-30T09:02:42;19.50;54.80
19090;DHT22;9677;50.656;13.064;2023-09-30T09:05:12;19.40;54.60
19090;DHT22;9677;50.656;13.064;2023-09-30T09:07:42;20.50;55.30
19090;DHT22;9677;50.656;13.064;2023-09-30T09:10:11;19.30;54.40
19090;DHT22;9677;50.656;13.064;2023-09-30T09:12:41;19.60;54.70
19090;DHT22;9677;50.656;13.064;2023-09-30T09:15:23;19.60;54.40
19090;DHT22;9677;50.656;13.064;2023-09-30T09:17:53;20.70;54.90
19090;DHT22;9677;50.656;13.064;2023-09-30T09:20:25;19.60;54.30
19090;DHT22;9677;50.656;13.064;2023-09-30T09:22:54;19.70;54.50
19090;DHT22;9677;50.656;13.064;2023-09-30T09:25:26;19.70;54.60
19090;DHT22;9677;50.656;13.064;2023-09-30T09:27:55;19.80;54.70
19090;DHT22;9677;50.656;13.064;2023-09-30T09:30:25;19.90;54.50
19090;DHT22;9677;50.656;13.064;2023-09-30T09:32:59;19.90;54.50
19090;DHT22;9677;50.656;13.064;2023-09-30T09:35:30;19.90;54.40
19090;DHT22;9677;50.656;13.064;2023-09-30T09:38:01;20.00;54.30
19090;DHT22;9677;50.656;13.064;2023-09-30T09:40:33;20.00;54.20
19090;DHT22;9677;50.656;13.064;2023-09-30T09:43:03;20.40;54.20
19090;DHT22;9677;50.656;13.064;2023-09-30T09:45:34;20.10;54.10
19090;DHT22;9677;50.656;13.064;2023-09-30T09:48:05;21.30;54.60
19090;DHT22;9677;50.656;13.064;2023-09-30T09:50:36;20.10;53.80
19090;DHT22;9677;50.656;13.064;2023-09-30T09:53:07;20.20;53.60
19090;DHT22;9677;50.656;13.064;2023-09-30T09:55:38;20.30;53.50
19090;DHT22;9677;50.656;13.064;2023-09-30T09:58:08;20.20;53.60
19090;DHT22;9677;50.656;13.064;2023-09-30T10:00:38;20.30;53.50
19090;DHT22;9677;50.656;13.064;2023-09-30T10:03:09;20.30;53.30
19090;DHT22;9677;50.656;13.064;2023-09-30T10:05:41;20.30;53.10
19090;DHT22;9677;50.656;13.064;2023-09-30T10:08:13;20.20;53.10
19090;DHT22;9677;50.656;13.064;2023-09-30T10:10:44;20.30;53.10
19090;DHT22;9677;50.656;13.064;2023-09-30T10:16:48;20.30;52.90
19090;DHT22;9677;50.656;13.064;2023-09-30T10:19:20;20.30;53.00
19090;DHT22;9677;50.656;13.064;2023-09-30T10:22:22;20.30;53.10
19090;DHT22;9677;50.656;13.064;2023-09-30T10:24:53;20.30;53.30
19090;DHT22;9677;50.656;13.064;2023-09-30T10:27:35;20.40;53.10
19090;DHT22;9677;50.656;13.064;2023-09-30T10:30:12;20.40;53.10
19090;DHT22;9677;50.656;13.064;2023-09-30T10:33:09;20.50;53.40
19090;DHT22;9677;50.656;13.064;2023-09-30T10:35:45;20.60;53.10
19090;DHT22;9677;50.656;13.064;2023-09-30T10:38:37;20.60;53.30
19090;DHT22;9677;50.656;13.064;2023-09-30T10:41:10;20.80;53.20
19090;DHT22;9677;50.656;13.064;2023-09-30T10:43:40;20.90;53.30
19090;DHT22;9677;50.656;13.064;2023-09-30T10:46:31;21.50;53.40
19090;DHT22;9677;50.656;13.064;2023-09-30T10:49:15;21.20;53.00
19090;DHT22;9677;50.656;13.064;2023-09-30T10:51:45;21.30;52.30
19090;DHT22;9677;50.656;13.064;2023-09-30T10:54:22;21.40;52.20
19090;DHT22;9677;50.656;13.064;2023-09-30T10:56:52;21.60;52.20
19090;DHT22;9677;50.656;13.064;2023-09-30T10:59:22;21.80;52.30
19090;DHT22;9677;50.656;13.064;2023-09-30T11:01:51;21.70;52.10
19090;DHT22;9677;50.656;13.064;2023-09-30T11:04:20;22.50;52.30
19090;DHT22;9677;50.656;13.064;2023-09-30T11:06:49;21.90;52.60
19090;DHT22;9677;50.656;13.064;2023-09-30T11:09:22;22.10;51.60
19090;DHT22;9677;50.656;13.064;2023-09-30T11:11:55;22.10;51.70
19090;DHT22;9677;50.656;13.064;2023-09-30T11:14:24;22.30;51.60
19090;DHT22;9677;50.656;13.064;2023-09-30T11:17:01;22.40;51.30
19090;DHT22;9677;50.656;13.064;2023-09-30T11:19:35;22.50;51.30
19090;DHT22;9677;50.656;13.064;2023-09-30T11:22:04;22.60;51.00
19090;DHT22;9677;50.656;13.064;2023-09-30T11:24:36;22.70;51.00
19090;DHT22;9677;50.656;13.064;2023-09-30T11:27:05;22.80;50.50
19090;DHT22;9677;50.656;13.064;2023-09-30T11:29:34;22.80;50.70
19090;DHT22;9677;50.656;13.064;2023-09-30T11:32:03;22.90;50.60
19090;DHT22;9677;50.656;13.064;2023-09-30T11:34:33;23.00;50.60
19090;DHT22;9677;50.656;13.064;2023-09-30T11:37:04;23.10;50.40
19090;DHT22;9677;50.656;13.064;2023-09-30T11:39:33;23.20;50.20
19090;DHT22;9677;50.656;13.064;2023-09-30T11:42:14;23.20;49.70
19090;DHT22;9677;50.656;13.064;2023-09-30T11:44:47;23.20;49.10
19090;DHT22;9677;50.656;13.064;2023-09-30T11:47:28;23.40;49.50
19090;DHT22;9677;50.656;13.064;2023-09-30T11:49:58;23.40;49.10
19090;DHT22;9677;50.656;13.064;2023-09-30T11:52:27;23.50;49.60
19090;DHT22;9677;50.656;13.064;2023-09-30T11:54:58;23.50;49.20
19090;DHT22;9677;50.656;13.064;2023-09-30T11:57:36;23.90;49.30
19090;DHT22;9677;50.656;13.064;2023-09-30T12:00:06;23.80;48.70
19090;DHT22;9677;50.656;13.064;2023-09-30T12:02:40;23.70;49.10
19090;DHT22;9677;50.656;13.064;2023-09-30T12:05:09;23.90;48.90
19090;DHT22;9677;50.656;13.064;2023-09-30T12:07:38;23.90;48.90
19090;DHT22;9677;50.656;13.064;2023-09-30T12:10:09;23.90;48.70
19090;DHT22;9677;50.656;13.064;2023-09-30T12:12:39;23.90;48.30
19090;DHT22;9677;50.656;13.064;2023-09-30T12:15:08;24.00;48.30
19090;DHT22;9677;50.656;13.064;2023-09-30T12:17:38;24.00;48.00
19090;DHT22;9677;50.656;13.064;2023-09-30T12:20:09;24.10;47.30
19090;DHT22;9677;50.656;13.064;2023-09-30T12:22:41;24.10;47.10
19090;DHT22;9677;50.656;13.064;2023-09-30T12:25:23;24.10;47.20
19090;DHT22;9677;50.656;13.064;2023-09-30T12:27:54;24.20;47.20
19090;DHT22;9677;50.656;13.064;2023-09-30T12:30:36;24.00;47.10
19090;DHT22;9677;50.656;13.064;2023-09-30T12:33:04;24.10;47.20
19090;DHT22;9677;50.656;13.064;2023-09-30T12:35:33;24.00;47.20
19090;DHT22;9677;50.656;13.064;2023-09-30T12:38:02;24.00;47.10
19090;DHT22;9677;50.656;13.064;2023-09-30T12:40:31;24.10;46.90
19090;DHT22;9677;50.656;13.064;2023-09-30T12:43:02;24.10;46.80
19090;DHT22;9677;50.656;13.064;2023-09-30T12:45:33;24.10;46.90
19090;DHT22;9677;50.656;13.064;2023-09-30T12:48:01;24.10;46.90
19090;DHT22;9677;50.656;13.064;2023-09-30T12:50:30;24.10;47.10
19090;DHT22;9677;50.656;13.064;2023-09-30T12:52:58;24.10;46.70
19090;DHT22;9677;50.656;13.064;2023-09-30T12:55:27;24.30;46.70
19090;DHT22;9677;50.656;13.064;2023-09-30T12:57:55;24.10;46.50
19090;DHT22;9677;50.656;13.064;2023-09-30T13:00:26;24.20;46.50
19090;DHT22;9677;50.656;13.064;2023-09-30T13:02:57;24.10;46.20
19090;DHT22;9677;50.656;13.064;2023-09-30T13:05:26;24.10;46.40
19090;DHT22;9677;50.656;13.064;2023-09-30T13:07:56;24.30;46.30
19090;DHT22;9677;50.656;13.064;2023-09-30T13:10:24;24.10;46.20
19090;DHT22;9677;50.656;13.064;2023-09-30T13:12:53;24.10;46.20
19090;DHT22;9677;50.656;13.064;2023-09-30T13:15:28;24.10;46.30
19090;DHT22;9677;50.656;13.064;2023-09-30T13:18:23;24.10;46.30
19090;DHT22;9677;50.656;13.064;2023-09-30T13:20:53;24.10;46.00
19090;DHT22;9677;50.656;13.064;2023-09-30T13:23:22;24.10;46.00
19090;DHT22;9677;50.656;13.064;2023-09-30T13:25:51;24.10;45.90
19090;DHT22;9677;50.656;13.064;2023-09-30T13:28:20;24.10;45.80
19090;DHT22;9677;50.656;13.064;2023-09-30T13:30:50;24.10;45.90
19090;DHT22;9677;50.656;13.064;2023-09-30T13:33:22;24.10;46.00
19090;DHT22;9677;50.656;13.064;2023-09-30T13:36:01;24.00;45.90
19090;DHT22;9677;50.656;13.064;2023-09-30T13:38:29;24.00;46.00
19090;DHT22;9677;50.656;13.064;2023-09-30T13:40:58;24.10;46.10
19090;DHT22;9677;50.656;13.064;2023-09-30T13:43:31;24.00;45.90
19090;DHT22;9677;50.656;13.064;2023-09-30T13:46:04;24.00;46.00
19090;DHT22;9677;50.656;13.064;2023-09-30T13:48:34;24.20;45.40
19090;DHT22;9677;50.656;13.064;2023-09-30T13:51:06;23.90;45.70
19090;DHT22;9677;50.656;13.064;2023-09-30T13:53:35;24.10;45.70
19090;DHT22;9677;50.656;13.064;2023-09-30T13:56:04;24.00;45.30
19090;DHT22;9677;50.656;13.064;2023-09-30T13:58:34;24.00;45.10
19090;DHT22;9677;50.656;13.064;2023-09-30T14:01:04;24.00;45.20
19090;DHT22;9677;50.656;13.064;2023-09-30T14:03:35;23.90;44.90
19090;DHT22;9677;50.656;13.064;2023-09-30T14:06:09;23.90;45.10
19090;DHT22;9677;50.656;13.064;2023-09-30T14:08:48;24.00;45.10
19090;DHT22;9677;50.656;13.064;2023-09-30T14:11:17;23.90;44.90
19090;DHT22;9677;50.656;13.064;2023-09-30T14:14:07;23.90;44.70
19090;DHT22;9677;50.656;13.064;2023-09-30T14:16:38;23.80;45.00
19090;DHT22;9677;50.656;13.064;2023-09-30T14:19:06;23.90;45.10
19090;DHT22;9677;50.656;13.064;2023-09-30T14:21:35;23.80;45.20
19090;DHT22;9677;50.656;13.064;2023-09-30T14:24:04;23.80;45.90
19090;DHT22;9677;50.656;13.064;2023-09-30T14:26:33;23.80;45.20
19090;DHT22;9677;50.656;13.064;2023-09-30T14:29:04;24.00;45.40
19090;DHT22;9677;50.656;13.064;2023-09-30T14:31:37;23.80;44.60
19090;DHT22;9677;50.656;13.064;2023-09-30T14:34:06;23.80;44.80
19090;DHT22;9677;50.656;13.064;2023-09-30T14:36:35;23.80;44.70
19090;DHT22;9677;50.656;13.064;2023-09-30T14:39:04;23.70;44.30
19090;DHT22;9677;50.656;13.064;2023-09-30T14:41:41;23.70;44.90
19090;DHT22;9677;50.656;13.064;2023-09-30T14:44:09;23.70;44.80
19090;DHT22;9677;50.656;13.064;2023-09-30T14:46:41;23.60;44.60
19090;DHT22;9677;50.656;13.064;2023-09-30T14:49:12;23.70;44.50
19090;DHT22;9677;50.656;13.064;2023-09-30T14:51:40;23.60;44.60
19090;DHT22;9677;50.656;13.064;2023-09-30T14:54:09;23.50;44.40
19090;DHT22;9677;50.656;13.064;2023-09-30T14:56:37;23.50;44.80
19090;DHT22;9677;50.656;13.064;2023-09-30T14:59:05;23.50;44.90
19090;DHT22;9677;50.656;13.064;2023-09-30T15:01:33;23.50;45.00
19090;DHT22;9677;50.656;13.064;2023-09-30T15:04:03;23.50;44.50
19090;DHT22;9677;50.656;13.064;2023-09-30T15:06:36;23.50;44.40
19090;DHT22;9677;50.656;13.064;2023-09-30T15:09:04;23.50;44.60
19090;DHT22;9677;50.656;13.064;2023-09-30T15:11:36;23.50;44.50
19090;DHT22;9677;50.656;13.064;2023-09-30T15:14:04;23.50;44.50
19090;DHT22;9677;50.656;13.064;2023-09-30T15:16:33;23.40;44.70
19090;DHT22;9677;50.656;13.064;2023-09-30T15:19:03;23.50;44.90
19090;DHT22;9677;50.656;13.064;2023-09-30T15:21:31;23.40;44.70
19090;DHT22;9677;50.656;13.064;2023-09-30T15:24:00;23.40;44.70
19090;DHT22;9677;50.656;13.064;2023-09-30T15:26:29;23.40;44.70
19090;DHT22;9677;50.656;13.064;2023-09-30T15:28:58;23.40;44.60
19090;DHT22;9677;50.656;13.064;2023-09-30T15:31:29;23.40;44.50
19090;DHT22;9677;50.656;13.064;2023-09-30T15:33:58;23.40;44.60
19090;DHT22;9677;50.656;13.064;2023-09-30T15:36:28;23.40;44.80
19090;DHT22;9677;50.656;13.064;2023-09-30T15:38:57;23.30;44.60
19090;DHT22;9677;50.656;13.064;2023-09-30T15:41:26;23.30;45.10
19090;DHT22;9677;50.656;13.064;2023-09-30T15:43:58;23.30;44.60
19090;DHT22;9677;50.656;13.064;2023-09-30T15:46:27;23.30;44.50
19090;DHT22;9677;50.656;13.064;2023-09-30T15:48:55;23.30;44.60
19090;DHT22;9677;50.656;13.064;2023-09-30T15:51:23;23.30;44.50
19090;DHT22;9677;50.656;13.064;2023-09-30T15:53:53;23.30;44.70